createdAt,value
2019-01-29T00:01:54.469Z,12.43
2019-01-29T00:04:20.340Z,11.83
2019-01-29T00:06:46.235Z,10.47
2019-01-29T00:09:12.162Z,9.20
2019-01-29T00:11:38.048Z,9.53
2019-01-29T00:14:03.965Z,10.40
2019-01-29T00:16:29.873Z,7.80
2019-01-29T00:18:55.817Z,11.27
2019-01-29T00:21:21.802Z,10.50
2019-01-29T00:23:47.721Z,9.40
2019-01-29T00:26:13.623Z,8.37
2019-01-29T00:28:39.533Z,14.33
2019-01-29T00:31:05.442Z,13.73
2019-01-29T00:33:31.458Z,9.43
2019-01-29T00:35:57.377Z,13.13
2019-01-29T00:38:23.394Z,11.47
2019-01-29T00:40:49.383Z,8.53
2019-01-29T00:43:15.387Z,6.77
2019-01-29T00:45:41.251Z,11.23
2019-01-29T00:48:07.179Z,11.13
2019-01-29T00:50:33.058Z,9.37
2019-01-29T00:52:58.984Z,7.30
2019-01-29T00:55:24.896Z,7.97
2019-01-29T00:57:50.773Z,11.97
2019-01-29T01:00:21.812Z,11.30
2019-01-29T01:02:47.759Z,11.17
2019-01-29T01:05:13.636Z,5.43
2019-01-29T01:07:39.598Z,10.67
2019-01-29T01:10:08.470Z,8.83
2019-01-29T01:12:34.386Z,9.73
2019-01-29T01:15:00.246Z,10.37
2019-01-29T01:17:26.139Z,10.70
2019-01-29T01:19:52.046Z,8.03
2019-01-29T01:22:17.988Z,11.50
2019-01-29T01:24:43.891Z,14.00
2019-01-29T01:27:09.764Z,11.77
2019-01-29T01:29:35.690Z,9.63
2019-01-29T01:32:01.698Z,12.93
2019-01-29T01:34:27.571Z,11.80
2019-01-29T01:36:53.468Z,10.47
2019-01-29T01:39:19.341Z,10.20
2019-01-29T01:41:45.253Z,10.10
2019-01-29T01:44:11.115Z,12.60
2019-01-29T01:46:37.006Z,14.40
2019-01-29T01:49:03.055Z,13.97
2019-01-29T01:51:28.949Z,14.87
2019-01-29T01:53:54.866Z,13.10
2019-01-29T01:56:20.785Z,13.23
2019-01-29T01:58:46.659Z,13.60
2019-01-29T02:01:12.573Z,16.40
2019-01-29T02:03:38.518Z,11.23
2019-01-29T02:06:04.388Z,16.70
2019-01-29T02:08:30.341Z,19.53
2019-01-29T02:10:56.211Z,18.67
2019-01-29T02:13:22.076Z,14.40
2019-01-29T02:15:47.982Z,15.17
2019-01-29T02:18:13.884Z,11.70
2019-01-29T02:20:39.792Z,14.77
2019-01-29T02:23:07.977Z,14.77
2019-01-29T02:25:33.499Z,11.30
2019-01-29T02:27:59.378Z,13.83
2019-01-29T02:30:25.321Z,17.90
2019-01-29T02:32:51.172Z,13.60
2019-01-29T02:35:17.082Z,14.73
2019-01-29T02:37:42.954Z,15.17
2019-01-29T02:40:20.617Z,15.23
2019-01-29T02:42:46.584Z,16.73
2019-01-29T02:45:13.900Z,15.60
2019-01-29T02:47:39.768Z,14.43
2019-01-29T02:50:07.993Z,11.67
2019-01-29T02:52:33.880Z,14.97
2019-01-29T02:54:59.735Z,15.40
2019-01-29T02:57:25.643Z,16.63
2019-01-29T02:59:51.591Z,13.03
2019-01-29T03:02:17.784Z,16.53
2019-01-29T03:04:43.664Z,16.53
2019-01-29T03:07:09.567Z,19.50
2019-01-29T03:09:35.432Z,18.03
2019-01-29T03:12:01.340Z,18.40
2019-01-29T03:14:27.203Z,16.80
2019-01-29T03:16:53.113Z,15.30
2019-01-29T03:19:19.033Z,13.73
2019-01-29T03:21:44.967Z,18.20
2019-01-29T03:24:10.937Z,19.13
2019-01-29T03:26:36.804Z,16.07
2019-01-29T03:29:02.715Z,18.80
2019-01-29T03:31:28.696Z,14.60
2019-01-29T03:33:54.604Z,14.50
2019-01-29T03:36:20.490Z,17.03
2019-01-29T03:38:46.367Z,21.23
2019-01-29T03:41:12.254Z,16.57
2019-01-29T03:43:38.157Z,18.37
2019-01-29T03:46:04.047Z,16.90
2019-01-29T03:48:29.933Z,17.53
2019-01-29T03:50:55.798Z,16.73
2019-01-29T03:53:21.710Z,22.00
2019-01-29T03:55:47.603Z,15.30
2019-01-29T03:58:13.488Z,21.77
2019-01-29T04:00:39.391Z,15.93
2019-01-29T04:03:05.338Z,13.47
2019-01-29T04:05:31.207Z,14.63
2019-01-29T04:07:57.069Z,14.97
2019-01-29T04:10:22.964Z,15.13
2019-01-29T04:12:48.843Z,15.03
2019-01-29T04:15:19.326Z,17.97
2019-01-29T04:17:45.243Z,16.67
2019-01-29T04:20:14.473Z,13.57
2019-01-29T04:22:40.400Z,16.43
2019-01-29T04:25:07.093Z,16.30
2019-01-29T04:27:32.949Z,16.13
2019-01-29T04:29:58.852Z,15.97
2019-01-29T04:32:24.733Z,17.97
2019-01-29T04:34:50.632Z,19.10
2019-01-29T04:37:16.503Z,17.87
2019-01-29T04:39:42.457Z,23.30
2019-01-29T04:42:08.315Z,18.93
2019-01-29T04:44:34.215Z,21.13
2019-01-29T04:47:00.084Z,16.90
2019-01-29T04:49:25.999Z,22.93
2019-01-29T04:51:53.101Z,20.43
2019-01-29T04:54:19.070Z,18.67
2019-01-29T04:56:44.989Z,13.93
2019-01-29T04:59:10.891Z,15.27
2019-01-29T05:01:36.750Z,18.57
2019-01-29T05:04:02.686Z,13.33
2019-01-29T05:06:28.555Z,13.33
2019-01-29T05:08:54.472Z,13.50
2019-01-29T05:11:20.357Z,15.83
2019-01-29T05:13:46.226Z,17.17
2019-01-29T05:16:12.137Z,15.37
2019-01-29T05:18:38.126Z,14.83
2019-01-29T05:21:04.057Z,15.37
2019-01-29T05:23:30.071Z,14.70
2019-01-29T05:25:55.960Z,12.77
2019-01-29T05:28:21.867Z,14.53
2019-01-29T05:30:47.813Z,13.33
2019-01-29T05:33:13.781Z,16.37
2019-01-29T05:35:39.695Z,15.70
2019-01-29T05:38:05.566Z,12.43
2019-01-29T05:40:31.456Z,16.33
2019-01-29T05:42:57.356Z,13.53
2019-01-29T05:45:23.327Z,12.50
2019-01-29T05:47:49.247Z,13.43
2019-01-29T05:50:15.177Z,10.73
2019-01-29T05:52:44.862Z,12.10
2019-01-29T05:55:13.521Z,14.57
2019-01-29T05:57:39.652Z,15.40
2019-01-29T06:00:16.021Z,13.07
2019-01-29T06:02:41.985Z,17.43
2019-01-29T06:05:08.865Z,15.93
2019-01-29T06:07:34.854Z,15.63
2019-01-29T06:10:00.724Z,16.00
2019-01-29T06:12:26.722Z,18.23
2019-01-29T06:14:52.700Z,14.53
2019-01-29T06:17:27.196Z,19.67
2019-01-29T06:19:46.561Z,20.43
2019-01-29T06:22:12.436Z,17.97
2019-01-29T06:24:38.344Z,13.77
2019-01-29T06:27:04.219Z,14.77
2019-01-29T06:29:30.121Z,13.90
2019-01-29T06:31:55.979Z,18.57
2019-01-29T06:34:21.897Z,16.40
2019-01-29T06:36:47.811Z,13.07
2019-01-29T06:39:13.691Z,18.00
2019-01-29T06:41:39.603Z,13.30
2019-01-29T06:44:05.507Z,15.80
2019-01-29T06:46:31.381Z,16.10
2019-01-29T06:48:57.291Z,14.97
2019-01-29T06:51:23.159Z,16.43
2019-01-29T06:53:49.103Z,15.93
2019-01-29T06:56:14.991Z,17.27
2019-01-29T06:58:40.897Z,18.93
2019-01-29T07:01:06.791Z,17.20
2019-01-29T07:03:32.727Z,17.57
2019-01-29T07:05:58.592Z,18.33
2019-01-29T07:08:24.512Z,17.37
2019-01-29T07:10:50.385Z,19.43
2019-01-29T07:13:16.293Z,15.90
2019-01-29T07:15:46.903Z,17.30
2019-01-29T07:18:33.082Z,18.60
2019-01-29T07:20:59.026Z,17.77
2019-01-29T07:23:24.890Z,16.87
2019-01-29T07:25:50.798Z,17.50
2019-01-29T07:28:16.720Z,15.37
2019-01-29T07:30:42.658Z,17.57
2019-01-29T07:33:08.552Z,17.80
2019-01-29T07:35:34.483Z,16.87
2019-01-29T07:38:00.335Z,17.30
2019-01-29T07:40:26.240Z,15.20
2019-01-29T07:42:52.126Z,18.13
2019-01-29T07:45:18.052Z,19.73
2019-01-29T07:47:43.894Z,18.67
2019-01-29T07:50:09.927Z,17.90
2019-01-29T07:52:35.835Z,13.13
2019-01-29T07:55:01.796Z,14.23
2019-01-29T07:57:27.693Z,17.07
2019-01-29T07:59:53.571Z,11.60
2019-01-29T08:02:19.527Z,13.07
2019-01-29T08:04:45.467Z,15.57
2019-01-29T08:07:11.369Z,14.97
2019-01-29T08:09:37.241Z,17.27
2019-01-29T08:12:03.157Z,15.10
2019-01-29T08:14:29.031Z,14.57
2019-01-29T08:16:54.905Z,13.60
2019-01-29T08:19:20.822Z,13.83
2019-01-29T08:21:46.739Z,18.63
2019-01-29T08:24:12.616Z,13.40
2019-01-29T08:26:38.482Z,12.20
2019-01-29T08:29:04.382Z,12.03
2019-01-29T08:31:30.233Z,14.20
2019-01-29T08:33:56.154Z,13.57
2019-01-29T08:36:22.006Z,14.17
2019-01-29T08:38:47.905Z,15.13
2019-01-29T08:41:13.851Z,13.73
2019-01-29T08:43:39.729Z,12.87
2019-01-29T08:46:05.620Z,11.03
2019-01-29T08:48:31.500Z,12.43
2019-01-29T08:50:57.412Z,13.83
2019-01-29T08:53:23.296Z,13.30
2019-01-29T08:55:49.494Z,14.80
2019-01-29T08:58:15.366Z,12.43
2019-01-29T09:00:41.280Z,14.50
2019-01-29T09:03:07.260Z,12.83
2019-01-29T09:05:33.199Z,12.50
2019-01-29T09:07:59.063Z,11.77
2019-01-29T09:10:24.978Z,15.97
2019-01-29T09:12:50.855Z,17.40
2019-01-29T09:15:20.123Z,9.70
2019-01-29T09:17:46.081Z,14.20
2019-01-29T09:20:14.746Z,12.93
2019-01-29T09:22:40.630Z,10.20
2019-01-29T09:25:09.039Z,9.60
2019-01-29T09:27:35.062Z,11.73
2019-01-29T09:30:00.920Z,14.50
2019-01-29T09:32:26.814Z,10.00
2019-01-29T09:34:52.692Z,12.17
2019-01-29T09:37:18.605Z,15.90
2019-01-29T09:42:32.981Z,12.07
2019-01-29T09:44:58.829Z,13.33
2019-01-29T09:47:24.763Z,11.20
2019-01-29T09:49:50.631Z,12.37
2019-01-29T09:52:16.569Z,12.67
2019-01-29T09:54:42.586Z,10.63
2019-01-29T09:57:08.474Z,14.10
2019-01-29T09:59:34.389Z,14.17
2019-01-29T10:02:00.269Z,13.30
2019-01-29T10:04:26.218Z,13.47
2019-01-29T10:06:52.196Z,10.00
2019-01-29T10:09:18.052Z,10.60
2019-01-29T10:11:43.993Z,8.80
2019-01-29T10:14:09.870Z,10.13
2019-01-29T10:16:35.764Z,10.47
2019-01-29T10:19:01.633Z,10.07
2019-01-29T10:21:27.536Z,12.00
2019-01-29T10:23:53.428Z,9.63
2019-01-29T10:26:19.333Z,8.90
2019-01-29T10:28:45.207Z,11.03
2019-01-29T10:31:11.223Z,12.03
2019-01-29T10:33:37.123Z,10.17
2019-01-29T10:36:05.427Z,9.33
2019-01-29T10:38:31.285Z,13.17
2019-01-29T10:40:57.194Z,11.17
2019-01-29T10:43:23.147Z,9.73
2019-01-29T10:45:49.026Z,10.47
2019-01-29T10:48:14.940Z,13.27
2019-01-29T10:50:40.808Z,12.00
2019-01-29T10:53:06.709Z,12.10
2019-01-29T10:55:32.699Z,10.57
2019-01-29T10:57:58.617Z,9.77
2019-01-29T11:00:30.923Z,8.60
2019-01-29T11:02:56.835Z,11.77
2019-01-29T11:05:22.847Z,11.87
2019-01-29T11:07:48.881Z,10.47
2019-01-29T11:10:16.100Z,10.37
2019-01-29T11:12:41.973Z,13.37
2019-01-29T11:15:14.717Z,17.77
2019-01-29T11:17:40.701Z,13.60
2019-01-29T11:20:10.128Z,12.40
2019-01-29T11:22:36.019Z,13.63
2019-01-29T11:25:04.332Z,12.20
2019-01-29T11:27:31.062Z,15.20
2019-01-29T11:29:57.100Z,10.03
2019-01-29T11:32:23.020Z,12.83
2019-01-29T11:34:48.894Z,8.00
2019-01-29T11:37:14.795Z,14.50
2019-01-29T11:39:40.899Z,19.20
2019-01-29T11:42:06.852Z,11.17
2019-01-29T11:44:32.784Z,13.87
2019-01-29T11:46:58.685Z,14.20
2019-01-29T11:49:24.661Z,12.37
2019-01-29T11:51:50.516Z,10.97
2019-01-29T11:54:16.436Z,9.77
2019-01-29T11:56:42.310Z,9.37
2019-01-29T11:59:08.227Z,12.83
2019-01-29T12:01:34.104Z,9.00
2019-01-29T12:04:00.026Z,11.07
2019-01-29T12:06:25.899Z,9.77
2019-01-29T12:08:51.836Z,12.47
2019-01-29T12:11:17.766Z,8.17
2019-01-29T12:13:43.742Z,9.90
2019-01-29T12:16:10.655Z,7.00
2019-01-29T12:18:36.613Z,10.93
2019-01-29T12:21:02.630Z,7.13
2019-01-29T12:23:28.502Z,12.27
2019-01-29T12:25:54.507Z,9.37
2019-01-29T12:28:20.414Z,9.10
2019-01-29T12:30:46.334Z,7.43
2019-01-29T12:33:12.210Z,8.27
2019-01-29T12:35:38.125Z,9.83
2019-01-29T12:38:04.003Z,10.20
2019-01-29T12:40:29.927Z,7.63
2019-01-29T12:42:55.845Z,10.90
2019-01-29T12:45:21.735Z,13.33
2019-01-29T12:47:47.629Z,12.90
2019-01-29T12:50:17.021Z,11.37
2019-01-29T12:52:44.839Z,14.10
2019-01-29T12:55:10.717Z,11.10
2019-01-29T12:57:36.644Z,13.37
2019-01-29T13:00:06.716Z,17.13
2019-01-29T13:02:32.645Z,11.70
2019-01-29T13:04:58.526Z,14.03
2019-01-29T13:07:24.460Z,10.70
2019-01-29T13:09:50.340Z,15.33
2019-01-29T13:12:16.254Z,12.97
2019-01-29T13:14:42.184Z,15.83
2019-01-29T13:17:08.168Z,13.03
2019-01-29T13:19:34.077Z,12.57
2019-01-29T13:21:59.948Z,14.77
2019-01-29T13:24:25.849Z,15.20
2019-01-29T13:26:51.733Z,14.60
2019-01-29T13:29:17.655Z,18.37
2019-01-29T13:31:43.538Z,14.80
2019-01-29T13:34:09.475Z,20.03
2019-01-29T13:36:35.356Z,19.90
2019-01-29T13:39:01.257Z,20.47
2019-01-29T13:41:27.142Z,19.37
2019-01-29T13:43:53.059Z,19.93
2019-01-29T13:46:19.510Z,18.10
2019-01-29T13:48:45.557Z,18.53
2019-01-29T13:51:11.479Z,20.87
2019-01-29T13:53:37.417Z,21.13
2019-01-29T13:56:03.315Z,19.37
2019-01-29T13:58:29.223Z,17.13
2019-01-29T14:00:55.141Z,20.40
2019-01-29T14:03:21.043Z,16.83
2019-01-29T14:05:46.970Z,18.63
2019-01-29T14:08:12.902Z,18.90
2019-01-29T14:10:38.819Z,16.43
2019-01-29T14:13:04.796Z,19.83
2019-01-29T14:15:38.428Z,18.03
2019-01-29T14:18:04.426Z,18.87
2019-01-29T14:20:30.356Z,18.60
2019-01-29T14:22:56.227Z,17.00
2019-01-29T14:25:22.150Z,16.80
2019-01-29T14:27:48.081Z,14.73
2019-01-29T14:30:27.669Z,20.93
2019-01-29T14:32:53.639Z,16.57
2019-01-29T14:35:19.519Z,15.30
2019-01-29T14:38:10.316Z,17.40
2019-01-29T14:40:36.194Z,20.80
2019-01-29T14:43:02.158Z,16.03
2019-01-29T14:45:32.011Z,14.33
2019-01-29T14:47:57.931Z,14.80
2019-01-29T14:50:24.008Z,18.00
2019-01-29T14:52:49.928Z,13.63
2019-01-29T14:55:15.838Z,15.03
2019-01-29T14:57:41.757Z,18.73
2019-01-29T15:00:32.249Z,12.70
2019-01-29T15:02:58.168Z,13.07
2019-01-29T15:05:24.049Z,16.67
2019-01-29T15:07:50.117Z,19.53
2019-01-29T15:10:19.432Z,14.23
2019-01-29T15:12:45.442Z,12.60
2019-01-29T15:15:14.049Z,17.10
2019-01-29T15:17:41.934Z,14.43
2019-01-29T15:20:10.063Z,13.30
2019-01-29T15:22:35.935Z,14.67
2019-01-29T15:25:01.875Z,13.70
2019-01-29T15:27:27.893Z,19.43
2019-01-29T15:29:53.797Z,16.77
2019-01-29T15:32:19.667Z,15.50
2019-01-29T15:34:45.567Z,16.07
2019-01-29T15:37:11.443Z,12.47
2019-01-29T15:39:37.357Z,14.93
2019-01-29T15:42:03.377Z,15.27
2019-01-29T15:44:29.289Z,16.80
2019-01-29T15:46:55.233Z,10.90
2019-01-29T15:49:21.109Z,15.07
2019-01-29T15:51:47.022Z,13.60
2019-01-29T15:54:12.902Z,16.33
2019-01-29T15:56:38.826Z,15.97
2019-01-29T15:59:04.715Z,14.10
2019-01-29T16:01:30.622Z,17.80
2019-01-29T16:03:56.564Z,14.67
2019-01-29T16:06:22.474Z,19.10
2019-01-29T16:08:48.402Z,14.30
2019-01-29T16:11:14.292Z,13.30
2019-01-29T16:13:42.618Z,14.40
2019-01-29T16:16:08.593Z,16.77
2019-01-29T16:18:34.497Z,12.90
2019-01-29T16:21:00.362Z,14.63
2019-01-29T16:23:26.289Z,13.50
2019-01-29T16:25:52.154Z,11.20
2019-01-29T16:28:18.089Z,13.30
2019-01-29T16:30:44.041Z,12.60
2019-01-29T16:33:09.932Z,14.97
2019-01-29T16:35:42.188Z,12.87
2019-01-29T16:38:08.161Z,16.47
2019-01-29T16:40:36.766Z,13.77
2019-01-29T16:43:02.882Z,13.03
2019-01-29T16:45:33.665Z,14.60
2019-01-29T16:48:00.453Z,15.03
2019-01-29T16:50:26.568Z,14.10
2019-01-29T16:52:52.445Z,13.70
2019-01-29T16:55:19.397Z,13.93
2019-01-29T16:57:45.409Z,13.73
2019-01-29T17:00:24.343Z,11.80
2019-01-29T17:02:50.279Z,12.83
2019-01-29T17:05:16.141Z,14.80
2019-01-29T17:07:42.069Z,13.27
2019-01-29T17:10:16.148Z,11.80
2019-01-29T17:12:42.266Z,13.57
2019-01-29T17:15:17.372Z,11.30
2019-01-29T17:17:43.301Z,12.00
2019-01-29T17:20:17.975Z,10.03
2019-01-29T17:22:43.914Z,13.70
2019-01-29T17:25:09.910Z,14.07
2019-01-29T17:27:40.372Z,14.03
2019-01-29T17:30:10.428Z,10.13
2019-01-29T17:32:36.382Z,15.07
2019-01-29T17:35:04.389Z,15.23
2019-01-29T17:37:30.477Z,14.50
2019-01-29T17:39:56.386Z,11.27
2019-01-29T17:42:22.376Z,11.70
2019-01-29T17:44:48.313Z,13.90
2019-01-29T17:47:14.181Z,16.23
2019-01-29T17:49:40.081Z,12.83
2019-01-29T17:52:05.958Z,11.50
2019-01-29T17:54:31.812Z,12.23
2019-01-29T17:56:57.729Z,12.43
2019-01-29T17:59:23.598Z,10.87
2019-01-29T18:01:49.712Z,10.30
2019-01-29T18:04:15.641Z,11.63
2019-01-29T18:06:41.520Z,9.43
2019-01-29T18:09:08.375Z,11.67
2019-01-29T18:11:34.247Z,15.70
2019-01-29T18:14:00.287Z,13.20
2019-01-29T18:16:26.325Z,12.57
2019-01-29T18:18:52.251Z,13.97
2019-01-29T18:21:18.137Z,12.97
2019-01-29T18:23:44.071Z,14.50
2019-01-29T18:26:09.945Z,13.77
2019-01-29T18:28:35.864Z,11.80
2019-01-29T18:31:01.745Z,10.83
2019-01-29T18:33:27.704Z,10.93
2019-01-29T18:35:53.582Z,16.20
2019-01-29T18:38:19.509Z,11.37
2019-01-29T18:40:48.825Z,13.27
2019-01-29T18:43:14.700Z,10.27
2019-01-29T18:45:40.615Z,10.13
2019-01-29T18:48:06.608Z,10.87
2019-01-29T18:50:32.535Z,9.47
2019-01-29T18:52:58.439Z,8.00
2019-01-29T18:55:24.382Z,7.50
2019-01-29T18:57:50.392Z,7.60
2019-01-29T19:00:22.230Z,7.63
2019-01-29T19:02:48.183Z,9.07
2019-01-29T19:05:15.079Z,7.43
2019-01-29T19:07:41.025Z,9.83
2019-01-29T19:10:13.324Z,7.33
2019-01-29T19:12:39.238Z,9.83
2019-01-29T19:15:08.929Z,7.50
2019-01-29T19:17:34.935Z,8.63
2019-01-29T19:20:00.813Z,7.30
2019-01-29T19:22:26.767Z,9.60
2019-01-29T19:24:52.646Z,10.27
2019-01-29T19:27:18.579Z,9.33
2019-01-29T19:29:44.531Z,6.83
2019-01-29T19:32:10.512Z,11.37
2019-01-29T19:34:36.431Z,8.63
2019-01-29T19:37:03.233Z,9.67
2019-01-29T19:39:29.427Z,10.27
2019-01-29T19:41:55.380Z,10.00
2019-01-29T19:44:21.404Z,11.83
2019-01-29T19:46:47.339Z,10.63
2019-01-29T19:49:13.254Z,9.67
2019-01-29T19:51:39.200Z,13.53
2019-01-29T19:54:05.072Z,10.80
2019-01-29T19:56:30.969Z,9.00
2019-01-29T19:58:56.873Z,10.83
2019-01-29T20:01:22.833Z,11.00
2019-01-29T20:03:48.768Z,9.67
2019-01-29T20:06:14.674Z,8.60
2019-01-29T20:08:40.753Z,11.73
2019-01-29T20:11:06.638Z,11.17
2019-01-29T20:13:32.583Z,13.50
2019-01-29T20:15:58.476Z,12.87
2019-01-29T20:18:24.404Z,15.73
2019-01-29T20:20:50.281Z,9.77
2019-01-29T20:23:16.198Z,8.40
2019-01-29T20:25:42.073Z,10.63
2019-01-29T20:28:08.011Z,9.93
2019-01-29T20:30:36.202Z,11.03
2019-01-29T20:33:02.254Z,11.37
2019-01-29T20:35:28.146Z,11.67
2019-01-29T20:37:54.076Z,13.07
2019-01-29T20:40:21.415Z,11.93
2019-01-29T20:42:47.406Z,10.37
2019-01-29T20:45:14.045Z,10.03
2019-01-29T20:47:39.944Z,11.93
2019-01-29T20:50:12.358Z,13.13
2019-01-29T20:52:38.345Z,10.70
2019-01-29T20:55:05.273Z,10.63
2019-01-29T20:57:31.156Z,11.57
2019-01-29T20:59:57.097Z,8.93
2019-01-29T21:02:22.975Z,11.30
2019-01-29T21:04:49.021Z,13.67
2019-01-29T21:07:14.899Z,8.83
2019-01-29T21:09:40.845Z,9.57
2019-01-29T21:12:06.744Z,11.00
2019-01-29T21:14:32.641Z,9.53
2019-01-29T21:16:58.754Z,10.50
2019-01-29T21:19:24.629Z,10.47
2019-01-29T21:21:50.547Z,12.60
2019-01-29T21:24:16.423Z,9.07
2019-01-29T21:26:42.325Z,9.53
2019-01-29T21:29:08.201Z,11.10
2019-01-29T21:31:34.125Z,10.97
2019-01-29T21:34:00.861Z,13.00
2019-01-29T21:36:26.729Z,11.43
2019-01-29T21:38:52.638Z,8.43
2019-01-29T21:41:18.518Z,11.97
2019-01-29T21:43:44.465Z,9.43
2019-01-29T21:46:10.426Z,11.50
2019-01-29T21:48:36.315Z,9.17
2019-01-29T21:51:02.329Z,11.10
2019-01-29T21:53:28.249Z,12.03
2019-01-29T21:55:54.138Z,9.87
2019-01-29T21:58:20.042Z,9.33
2019-01-29T22:00:45.937Z,10.63
2019-01-29T22:03:11.870Z,8.40
2019-01-29T22:05:37.782Z,11.30
2019-01-29T22:08:04.248Z,10.30
2019-01-29T22:10:30.139Z,10.50
2019-01-29T22:12:56.027Z,10.40
2019-01-29T22:15:23.356Z,9.90
2019-01-29T22:17:49.260Z,11.63
2019-01-29T22:20:17.169Z,12.80
2019-01-29T22:22:43.062Z,14.47
2019-01-29T22:25:14.529Z,13.07
2019-01-29T22:27:40.436Z,13.17
2019-01-29T22:30:10.159Z,11.40
2019-01-29T22:32:36.047Z,9.47
2019-01-29T22:35:02.283Z,12.83
2019-01-29T22:37:28.159Z,10.70
2019-01-29T22:39:54.099Z,12.87
2019-01-29T22:42:19.977Z,11.70
2019-01-29T22:44:45.915Z,11.07
2019-01-29T22:47:11.851Z,12.07
2019-01-29T22:49:37.845Z,10.60
2019-01-29T22:52:06.295Z,9.93
2019-01-29T22:54:32.295Z,11.53
2019-01-29T22:56:58.329Z,10.47
2019-01-29T22:59:32.968Z,9.40
2019-01-29T23:01:52.132Z,14.07
2019-01-29T23:04:18.005Z,10.40
2019-01-29T23:06:49.914Z,11.07
2019-01-29T23:09:15.831Z,9.27
2019-01-29T23:11:41.732Z,12.43
2019-01-29T23:14:07.654Z,9.80
2019-01-29T23:16:33.519Z,14.03
2019-01-29T23:18:59.385Z,11.87
2019-01-29T23:21:25.229Z,13.93
2019-01-29T23:23:51.123Z,13.10
2019-01-29T23:26:16.991Z,11.40
2019-01-29T23:28:42.871Z,10.30
2019-01-29T23:31:08.710Z,14.13
2019-01-29T23:33:34.601Z,12.37
2019-01-29T23:36:00.460Z,11.17
2019-01-29T23:38:26.329Z,10.80
2019-01-29T23:40:52.207Z,12.57
2019-01-29T23:43:18.108Z,10.70
2019-01-29T23:45:44.037Z,12.33
2019-01-29T23:48:09.888Z,12.63
2019-01-29T23:50:35.770Z,11.63
2019-01-29T23:53:01.623Z,10.97
2019-01-29T23:55:27.503Z,17.53
2019-01-29T23:57:53.343Z,11.43
